createdAt,value
2017-12-23T00:02:26.806Z,5.80
2017-12-23T00:04:56.715Z,5.90
2017-12-23T00:07:26.764Z,5.90
2017-12-23T00:09:55.895Z,5.90
2017-12-23T00:12:25.038Z,5.90
2017-12-23T00:14:54.210Z,5.80
2017-12-23T00:17:23.298Z,5.80
2017-12-23T00:19:52.406Z,5.80
2017-12-23T00:22:21.678Z,5.80
2017-12-23T00:24:50.797Z,5.80
2017-12-23T00:27:20.731Z,5.60
2017-12-23T00:29:51.028Z,5.60
2017-12-23T00:32:20.178Z,5.60
2017-12-23T00:34:50.065Z,5.60
2017-12-23T00:37:20.374Z,5.50
2017-12-23T00:39:50.314Z,5.50
2017-12-23T00:42:19.439Z,5.30
2017-12-23T00:44:48.599Z,5.30
2017-12-23T00:47:18.527Z,5.30
2017-12-23T00:49:48.420Z,5.20
2017-12-23T00:52:18.362Z,5.20
2017-12-23T00:54:47.504Z,5.20
2017-12-23T00:57:16.657Z,5.10
2017-12-23T00:59:45.847Z,5.10
2017-12-23T01:02:15.036Z,5.00
2017-12-23T01:04:44.569Z,5.00
2017-12-23T01:07:13.953Z,5.00
2017-12-23T01:09:43.185Z,5.00
2017-12-23T01:12:12.380Z,5.00
2017-12-23T01:14:43.505Z,4.90
2017-12-23T01:17:13.746Z,4.90
2017-12-23T01:19:42.930Z,4.90
2017-12-23T01:22:12.153Z,4.90
2017-12-23T01:24:41.289Z,4.90
2017-12-23T01:27:10.439Z,4.90
2017-12-23T01:29:39.607Z,4.90
2017-12-23T01:32:08.722Z,4.90
2017-12-23T01:34:37.845Z,4.90
2017-12-23T01:37:09.393Z,5.00
2017-12-23T01:39:38.636Z,4.90
2017-12-23T01:42:08.542Z,4.90
2017-12-23T01:44:38.458Z,4.90
2017-12-23T01:47:09.192Z,4.90
2017-12-23T01:49:38.338Z,4.90
2017-12-23T01:52:09.055Z,4.80
2017-12-23T01:54:38.191Z,4.80
2017-12-23T01:57:07.302Z,4.90
2017-12-23T01:59:37.507Z,4.80
2017-12-23T02:02:07.322Z,4.80
2017-12-23T02:04:36.438Z,4.80
2017-12-23T02:07:05.684Z,4.80
2017-12-23T02:09:35.585Z,4.80
2017-12-23T02:12:04.726Z,4.70
2017-12-23T02:14:35.329Z,4.70
2017-12-23T02:17:04.502Z,4.70
2017-12-23T02:19:33.676Z,4.70
2017-12-23T02:22:03.677Z,4.70
2017-12-23T02:24:32.799Z,4.60
2017-12-23T02:27:01.912Z,4.70
2017-12-23T02:29:31.279Z,4.60
2017-12-23T02:32:00.398Z,4.50
2017-12-23T02:34:30.392Z,4.50
2017-12-23T02:37:01.125Z,4.50
2017-12-23T02:39:30.246Z,4.50
2017-12-23T02:42:00.151Z,4.50
2017-12-23T02:44:29.310Z,4.50
2017-12-23T02:46:58.428Z,4.50
2017-12-23T02:49:27.538Z,4.50
2017-12-23T02:51:57.815Z,4.50
2017-12-23T02:54:26.914Z,4.40
2017-12-23T02:56:56.015Z,4.30
2017-12-23T02:59:25.151Z,4.50
2017-12-23T03:01:55.226Z,4.50
2017-12-23T03:04:24.351Z,4.50
2017-12-23T03:06:54.003Z,4.50
2017-12-23T03:09:23.167Z,4.50
2017-12-23T03:11:52.263Z,4.50
2017-12-23T03:14:21.415Z,4.60
2017-12-23T03:16:50.538Z,4.60
2017-12-23T03:19:19.659Z,4.60
2017-12-23T03:21:48.956Z,4.60
2017-12-23T03:24:18.146Z,4.60
2017-12-23T03:26:47.301Z,4.70
2017-12-23T03:29:17.239Z,4.70
2017-12-23T03:31:46.378Z,4.70
2017-12-23T03:34:15.531Z,4.80
2017-12-23T03:36:45.023Z,4.80
2017-12-23T03:39:14.177Z,4.80
2017-12-23T03:41:44.128Z,4.90
2017-12-23T03:44:13.501Z,4.90
2017-12-23T03:46:42.666Z,5.00
2017-12-23T03:49:12.040Z,5.00
2017-12-23T03:51:41.566Z,5.10
2017-12-23T03:54:11.486Z,5.20
2017-12-23T03:56:41.412Z,5.20
2017-12-23T03:59:11.671Z,5.30
2017-12-23T04:01:40.838Z,5.30
2017-12-23T04:04:10.859Z,5.40
2017-12-23T04:06:40.862Z,5.40
2017-12-23T04:09:09.991Z,5.40
2017-12-23T04:11:39.119Z,5.40
2017-12-23T04:14:08.270Z,5.50
2017-12-23T04:16:37.384Z,5.50
2017-12-23T04:19:06.512Z,5.50
2017-12-23T04:21:35.745Z,5.60
2017-12-23T04:24:04.890Z,5.60
2017-12-23T04:26:34.087Z,5.60
2017-12-23T04:29:03.978Z,5.60
2017-12-23T04:31:33.070Z,5.70
2017-12-23T04:34:02.188Z,5.80
2017-12-23T04:36:31.823Z,5.80
2017-12-23T04:39:00.942Z,5.80
2017-12-23T04:41:30.097Z,5.90
2017-12-23T04:43:59.234Z,5.90
2017-12-23T04:46:28.355Z,5.90
2017-12-23T04:48:57.471Z,6.00
2017-12-23T04:51:26.902Z,6.00
2017-12-23T04:53:56.043Z,6.00
2017-12-23T04:56:25.173Z,6.10
2017-12-23T04:58:54.358Z,6.20
2017-12-23T05:01:23.495Z,6.30
2017-12-23T05:03:52.767Z,6.30
2017-12-23T05:06:22.700Z,6.50
2017-12-23T05:08:51.798Z,6.50
2017-12-23T05:11:21.713Z,6.70
2017-12-23T05:13:50.955Z,6.70
2017-12-23T05:16:20.086Z,6.80
2017-12-23T05:18:49.196Z,6.90
2017-12-23T05:21:18.437Z,6.90
2017-12-23T05:23:47.568Z,7.00
2017-12-23T05:26:16.662Z,7.10
2017-12-23T05:28:45.811Z,7.10
2017-12-23T05:31:15.049Z,7.20
2017-12-23T05:33:44.271Z,7.20
2017-12-23T05:36:15.300Z,7.20
2017-12-23T05:38:44.489Z,7.20
2017-12-23T05:41:13.692Z,7.30
2017-12-23T05:43:44.636Z,7.40
2017-12-23T05:46:14.581Z,7.40
2017-12-23T05:48:43.826Z,7.40
2017-12-23T05:51:13.985Z,7.40
2017-12-23T05:53:43.242Z,7.50
2017-12-23T05:56:12.403Z,7.50
2017-12-23T05:58:42.370Z,7.50
2017-12-23T06:01:12.308Z,7.60
2017-12-23T06:03:41.555Z,7.60
2017-12-23T06:06:11.445Z,7.70
2017-12-23T06:08:40.629Z,7.70
2017-12-23T06:11:10.627Z,7.80
2017-12-23T06:13:40.549Z,7.70
2017-12-23T06:16:09.749Z,7.80
2017-12-23T06:18:38.924Z,7.80
2017-12-23T06:21:08.918Z,7.80
2017-12-23T06:23:38.028Z,7.80
2017-12-23T06:26:07.145Z,7.80
2017-12-23T06:28:36.285Z,7.80
2017-12-23T06:31:05.506Z,7.90
2017-12-23T06:33:34.618Z,7.90
2017-12-23T06:36:03.768Z,7.90
2017-12-23T06:38:32.914Z,7.90
2017-12-23T06:41:02.850Z,8.00
2017-12-23T06:43:32.426Z,7.90
2017-12-23T06:46:01.540Z,8.00
2017-12-23T06:48:30.644Z,8.00
2017-12-23T06:51:00.387Z,8.00
2017-12-23T06:53:30.249Z,8.00
2017-12-23T06:55:59.334Z,8.00
2017-12-23T06:58:29.642Z,8.00
2017-12-23T07:00:58.756Z,8.00
2017-12-23T07:03:27.875Z,8.00
2017-12-23T07:05:57.023Z,8.00
2017-12-23T07:08:26.124Z,8.10
2017-12-23T07:10:55.228Z,8.00
2017-12-23T07:13:25.404Z,8.00
2017-12-23T07:15:54.520Z,8.00
2017-12-23T07:18:23.639Z,8.00
2017-12-23T07:20:52.901Z,8.00
2017-12-23T07:23:22.100Z,8.00
2017-12-23T07:25:51.205Z,8.00
2017-12-23T07:28:20.343Z,8.00
2017-12-23T07:30:49.534Z,8.00
2017-12-23T07:33:18.704Z,8.00
2017-12-23T07:35:47.929Z,8.00
2017-12-23T07:38:18.241Z,8.00
2017-12-23T07:40:47.397Z,8.00
2017-12-23T07:43:17.193Z,8.00
2017-12-23T07:45:46.468Z,8.00
2017-12-23T07:48:15.630Z,8.00
2017-12-23T07:50:45.602Z,8.10
2017-12-23T07:53:14.917Z,8.00
2017-12-23T07:55:44.073Z,8.10
2017-12-23T07:58:14.458Z,8.10
2017-12-23T08:00:43.711Z,8.10
2017-12-23T08:03:12.880Z,8.10
2017-12-23T08:05:42.484Z,8.10
2017-12-23T08:08:12.186Z,8.10
2017-12-23T08:10:42.157Z,8.10
2017-12-23T08:13:12.037Z,8.10
2017-12-23T08:15:41.982Z,8.20
2017-12-23T08:18:11.255Z,8.10
2017-12-23T08:20:40.783Z,8.20
2017-12-23T08:23:10.594Z,8.20
2017-12-23T08:25:40.662Z,8.30
2017-12-23T08:28:10.351Z,8.30
2017-12-23T08:30:39.621Z,8.30
2017-12-23T08:33:08.739Z,8.30
2017-12-23T08:35:38.094Z,8.30
2017-12-23T08:38:07.218Z,8.30
2017-12-23T08:40:37.150Z,8.30
2017-12-23T08:43:06.394Z,8.30
2017-12-23T08:45:35.508Z,8.20
2017-12-23T08:48:04.660Z,8.30
2017-12-23T08:50:35.456Z,8.30
2017-12-23T08:53:04.597Z,8.30
2017-12-23T08:55:33.755Z,8.30
2017-12-23T08:58:03.977Z,8.30
2017-12-23T09:00:33.899Z,8.30
2017-12-23T09:03:03.046Z,8.30
2017-12-23T09:05:32.504Z,8.30
2017-12-23T09:08:01.634Z,8.30
2017-12-23T09:10:30.741Z,8.30
2017-12-23T09:13:00.466Z,8.30
2017-12-23T09:15:29.594Z,8.30
2017-12-23T09:17:59.508Z,8.30
2017-12-23T09:20:29.087Z,8.30
2017-12-23T09:22:58.202Z,8.30
2017-12-23T09:25:27.331Z,8.30
2017-12-23T09:27:57.147Z,8.30
2017-12-23T09:30:26.265Z,8.30
2017-12-23T09:32:56.363Z,8.30
2017-12-23T09:35:25.577Z,8.20
2017-12-23T09:37:54.698Z,8.30
2017-12-23T09:40:23.827Z,8.20
2017-12-23T09:42:53.110Z,8.20
2017-12-23T09:45:22.263Z,8.20
2017-12-23T09:47:51.394Z,8.20
2017-12-23T09:50:20.556Z,8.20
2017-12-23T09:52:50.474Z,8.20
2017-12-23T09:55:19.681Z,8.20
2017-12-23T09:57:49.915Z,8.20
2017-12-23T10:00:19.150Z,8.20
2017-12-23T10:02:48.379Z,8.20
2017-12-23T10:05:17.659Z,8.20
2017-12-23T10:07:46.860Z,8.20
2017-12-23T10:10:16.032Z,8.20
2017-12-23T10:12:45.874Z,8.10
2017-12-23T10:15:15.112Z,8.10
2017-12-23T10:17:44.356Z,8.10
2017-12-23T10:20:14.186Z,8.10
2017-12-23T10:22:43.437Z,8.10
2017-12-23T10:25:12.640Z,8.10
2017-12-23T10:27:42.058Z,8.10
2017-12-23T10:30:11.418Z,8.20
2017-12-23T10:32:40.577Z,8.10
2017-12-23T10:35:10.023Z,8.10
2017-12-23T10:37:39.187Z,8.10
2017-12-23T10:40:08.371Z,8.10
2017-12-23T10:42:37.543Z,8.10
2017-12-23T10:45:06.715Z,8.10
2017-12-23T10:47:36.605Z,8.10
2017-12-23T10:50:05.802Z,8.10
2017-12-23T10:52:34.923Z,8.10
2017-12-23T10:55:04.083Z,8.10
2017-12-23T10:57:34.003Z,8.10
2017-12-23T11:00:03.995Z,8.00
2017-12-23T11:02:33.213Z,8.00
2017-12-23T11:05:02.483Z,8.00
2017-12-23T11:07:31.638Z,8.00
2017-12-23T11:10:00.820Z,8.10
2017-12-23T11:12:30.014Z,8.10
2017-12-23T11:14:59.158Z,8.00
2017-12-23T11:17:28.295Z,8.00
2017-12-23T11:19:58.066Z,8.00
2017-12-23T11:22:28.212Z,8.00
2017-12-23T11:24:57.391Z,8.00
2017-12-23T11:27:26.958Z,8.10
2017-12-23T11:29:57.047Z,8.10
2017-12-23T11:32:26.259Z,8.10
2017-12-23T11:34:56.032Z,8.10
2017-12-23T11:37:25.148Z,8.10
2017-12-23T11:39:54.276Z,8.10
2017-12-23T11:42:24.282Z,8.10
2017-12-23T11:44:53.415Z,8.10
2017-12-23T11:47:22.547Z,8.10
2017-12-23T11:49:51.732Z,8.10
2017-12-23T11:52:22.527Z,8.10
2017-12-23T11:54:51.665Z,8.10
2017-12-23T11:57:21.695Z,8.10
2017-12-23T11:59:50.807Z,8.10
2017-12-23T12:02:19.979Z,8.10
2017-12-23T12:04:49.451Z,8.10
2017-12-23T12:07:19.576Z,8.10
2017-12-23T12:09:48.932Z,8.10
2017-12-23T12:12:18.171Z,8.10
2017-12-23T12:14:47.409Z,8.10
2017-12-23T12:17:16.544Z,8.10
2017-12-23T12:19:46.509Z,8.00
2017-12-23T12:22:15.665Z,8.10
2017-12-23T12:24:44.882Z,8.10
2017-12-23T12:27:14.741Z,8.10
2017-12-23T12:29:43.969Z,8.10
2017-12-23T12:32:13.121Z,8.10
2017-12-23T12:34:42.649Z,8.10
2017-12-23T12:37:13.403Z,8.10
2017-12-23T12:39:42.626Z,8.10
2017-12-23T12:42:12.754Z,8.10
2017-12-23T12:44:42.748Z,8.10
2017-12-23T12:47:11.892Z,8.10
2017-12-23T12:49:41.189Z,8.10
2017-12-23T12:52:11.102Z,8.10
2017-12-23T12:54:41.423Z,8.10
2017-12-23T12:57:10.949Z,8.00
2017-12-23T12:59:40.125Z,8.00
2017-12-23T13:02:09.240Z,8.00
2017-12-23T13:04:38.462Z,8.00
2017-12-23T13:07:07.599Z,8.00
2017-12-23T13:09:36.730Z,8.00
2017-12-23T13:12:05.922Z,8.00
2017-12-23T13:14:35.115Z,8.00
2017-12-23T13:17:04.698Z,8.00
2017-12-23T13:19:34.285Z,8.00
2017-12-23T13:22:04.183Z,8.00
2017-12-23T13:24:33.321Z,8.00
2017-12-23T13:27:03.198Z,8.00
2017-12-23T13:29:32.304Z,8.00
2017-12-23T13:32:01.413Z,8.00
2017-12-23T13:34:31.593Z,7.90
2017-12-23T13:37:01.482Z,7.90
2017-12-23T13:39:30.618Z,7.90
2017-12-23T13:42:01.380Z,7.90
2017-12-23T13:44:30.622Z,7.90
2017-12-23T13:46:59.893Z,7.90
2017-12-23T13:49:29.058Z,7.90
2017-12-23T13:51:58.166Z,7.90
2017-12-23T13:54:27.304Z,7.90
2017-12-23T13:56:57.351Z,7.80
2017-12-23T13:59:26.521Z,7.80
2017-12-23T14:01:55.693Z,7.80
2017-12-23T14:04:24.950Z,7.80
2017-12-23T14:06:54.095Z,7.80
2017-12-23T14:09:23.234Z,7.80
2017-12-23T14:11:52.811Z,7.80
2017-12-23T14:14:21.974Z,7.80
2017-12-23T14:16:51.097Z,7.80
2017-12-23T14:19:20.290Z,7.80
2017-12-23T14:21:49.435Z,7.80
2017-12-23T14:24:18.672Z,7.80
2017-12-23T14:26:47.887Z,7.70
2017-12-23T14:29:17.056Z,7.70
2017-12-23T14:31:46.198Z,7.70
2017-12-23T14:34:15.492Z,7.70
2017-12-23T14:36:44.678Z,7.70
2017-12-23T14:39:13.908Z,7.80
2017-12-23T14:41:43.182Z,7.80
2017-12-23T14:44:12.644Z,7.80
2017-12-23T14:46:41.923Z,7.80
2017-12-23T14:49:11.950Z,7.80
2017-12-23T14:51:42.111Z,7.80
2017-12-23T14:54:11.630Z,7.80
2017-12-23T14:56:41.114Z,7.80
2017-12-23T14:59:10.316Z,7.80
2017-12-23T15:01:39.460Z,7.80
2017-12-23T15:04:08.915Z,7.80
2017-12-23T15:06:38.016Z,7.80
2017-12-23T15:09:07.154Z,7.80
2017-12-23T15:11:37.519Z,7.80
2017-12-23T15:14:06.642Z,7.80
2017-12-23T15:16:36.062Z,7.80
2017-12-23T15:19:06.034Z,7.80
2017-12-23T15:21:35.943Z,7.80
2017-12-23T15:24:05.575Z,7.80
2017-12-23T15:26:35.759Z,7.80
2017-12-23T15:29:04.878Z,7.80
2017-12-23T15:31:34.016Z,7.80
2017-12-23T15:34:03.227Z,7.80
2017-12-23T15:36:32.404Z,7.80
2017-12-23T15:39:01.540Z,7.80
2017-12-23T15:41:31.167Z,7.80
2017-12-23T15:44:00.310Z,7.80
2017-12-23T15:46:30.253Z,7.80
2017-12-23T15:49:00.204Z,7.80
2017-12-23T15:51:29.365Z,7.80
2017-12-23T15:53:59.292Z,7.80
2017-12-23T15:56:29.262Z,7.80
2017-12-23T15:58:58.699Z,7.80
2017-12-23T16:01:27.884Z,7.80
2017-12-23T16:03:57.430Z,7.80
2017-12-23T16:06:26.648Z,7.80
2017-12-23T16:08:55.879Z,7.80
2017-12-23T16:11:25.218Z,7.80
2017-12-23T16:13:55.097Z,7.90
2017-12-23T16:16:24.295Z,7.80
2017-12-23T16:18:54.372Z,7.90
2017-12-23T16:21:24.293Z,7.90
2017-12-23T16:23:54.266Z,7.90
2017-12-23T16:26:23.444Z,7.90
2017-12-23T16:28:53.332Z,7.90
2017-12-23T16:31:22.526Z,7.90
2017-12-23T16:33:51.867Z,8.00
2017-12-23T16:36:21.024Z,8.00
2017-12-23T16:38:50.174Z,7.90
2017-12-23T16:41:19.346Z,7.90
2017-12-23T16:43:48.697Z,7.90
2017-12-23T16:46:18.700Z,8.00
2017-12-23T16:48:47.995Z,8.00
2017-12-23T16:51:17.152Z,8.00
2017-12-23T16:53:46.395Z,8.00
2017-12-23T16:56:16.787Z,8.00
2017-12-23T16:58:46.023Z,8.00
2017-12-23T17:01:16.058Z,8.00
2017-12-23T17:03:46.575Z,8.00
2017-12-23T17:06:15.932Z,8.00
2017-12-23T17:08:45.118Z,8.00
2017-12-23T17:11:15.193Z,7.90
2017-12-23T17:13:44.382Z,7.90
2017-12-23T17:16:13.714Z,8.00
2017-12-23T17:18:42.967Z,8.00
2017-12-23T17:21:12.183Z,8.00
2017-12-23T17:23:41.494Z,8.00
2017-12-23T17:26:12.300Z,8.00
2017-12-23T17:28:59.388Z,8.00
2017-12-23T17:31:28.838Z,8.00
2017-12-23T17:33:58.706Z,7.90
2017-12-23T17:36:27.893Z,7.90
2017-12-23T17:38:57.566Z,8.00
2017-12-23T17:41:26.678Z,8.00
2017-12-23T17:43:55.821Z,8.00
2017-12-23T17:46:25.951Z,8.00
2017-12-23T17:48:55.144Z,8.00
2017-12-23T17:51:24.582Z,8.00
2017-12-23T17:53:54.543Z,8.00
2017-12-23T17:56:24.039Z,8.00
2017-12-23T17:58:53.223Z,8.00
2017-12-23T18:01:23.356Z,8.10
2017-12-23T18:03:54.646Z,8.10
2017-12-23T18:06:25.013Z,8.10
2017-12-23T18:08:54.454Z,8.10
2017-12-23T18:11:23.627Z,8.20
2017-12-23T18:13:53.190Z,8.20
2017-12-23T18:16:22.356Z,8.20
2017-12-23T18:18:51.609Z,8.20
2017-12-23T18:21:20.832Z,8.20
2017-12-23T18:23:50.079Z,8.20
2017-12-23T18:26:19.270Z,8.20
2017-12-23T18:28:49.257Z,8.20
2017-12-23T18:31:18.442Z,8.20
2017-12-23T18:33:47.686Z,8.20
2017-12-23T18:36:18.599Z,8.20
2017-12-23T18:38:47.865Z,8.20
2017-12-23T18:41:17.906Z,8.20
2017-12-23T18:43:47.849Z,8.20
2017-12-23T18:46:18.075Z,8.20
2017-12-23T18:48:47.378Z,8.20
2017-12-23T18:51:17.773Z,8.20
2017-12-23T18:53:47.714Z,8.20
2017-12-23T18:56:16.995Z,8.10
2017-12-23T18:58:46.384Z,8.20
2017-12-23T19:01:16.326Z,8.10
2017-12-23T19:03:45.626Z,8.10
2017-12-23T19:06:14.826Z,8.20
2017-12-23T19:08:44.795Z,8.10
2017-12-23T19:11:14.038Z,8.10
2017-12-23T19:13:44.435Z,8.10
2017-12-23T19:16:32.444Z,8.10
2017-12-23T19:19:02.369Z,8.10
2017-12-23T19:21:31.514Z,8.00
2017-12-23T19:24:00.700Z,8.00
2017-12-23T19:26:30.655Z,7.90
2017-12-23T19:28:59.778Z,7.90
2017-12-23T19:31:28.890Z,7.90
2017-12-23T19:33:58.046Z,7.90
2017-12-23T19:36:27.190Z,7.90
2017-12-23T19:38:56.316Z,7.80
2017-12-23T19:41:26.740Z,7.80
2017-12-23T19:43:55.858Z,7.80
2017-12-23T19:46:24.966Z,7.80
2017-12-23T19:48:54.960Z,7.80
2017-12-23T19:51:24.084Z,7.80
2017-12-23T19:53:54.026Z,7.70
2017-12-23T19:56:24.115Z,7.70
2017-12-23T19:58:53.338Z,7.70
2017-12-23T20:01:23.266Z,7.70
2017-12-23T20:03:52.424Z,7.70
2017-12-23T20:06:21.548Z,7.80
2017-12-23T20:08:50.669Z,7.80
2017-12-23T20:11:20.145Z,7.80
2017-12-23T20:13:49.287Z,7.80
2017-12-23T20:16:18.413Z,7.80
2017-12-23T20:18:47.612Z,7.80
2017-12-23T20:21:16.754Z,7.80
2017-12-23T20:23:46.000Z,7.80
2017-12-23T20:26:15.553Z,7.80
2017-12-23T20:28:45.059Z,7.80
2017-12-23T20:31:14.381Z,7.80
2017-12-23T20:33:43.887Z,7.80
2017-12-23T20:36:13.088Z,7.80
2017-12-23T20:38:42.385Z,7.80
2017-12-23T20:41:11.869Z,7.90
2017-12-23T20:43:41.053Z,7.90
2017-12-23T20:46:10.471Z,7.90
2017-12-23T20:48:40.063Z,7.90
2017-12-23T20:51:09.273Z,7.90
2017-12-23T20:53:38.387Z,7.90
2017-12-23T20:56:09.162Z,7.90
2017-12-23T20:58:38.282Z,7.90
2017-12-23T21:01:07.419Z,7.90
2017-12-23T21:03:37.443Z,7.90
2017-12-23T21:06:06.644Z,7.90
2017-12-23T21:08:35.738Z,7.90
2017-12-23T21:11:07.016Z,8.00
2017-12-23T21:13:36.114Z,8.00
2017-12-23T21:16:05.293Z,8.00
2017-12-23T21:18:34.742Z,8.10
2017-12-23T21:21:04.678Z,8.00
2017-12-23T21:23:34.680Z,8.00
2017-12-23T21:26:05.089Z,8.00
2017-12-23T21:28:34.342Z,8.00
2017-12-23T21:31:03.489Z,8.00
2017-12-23T21:33:34.353Z,8.00
2017-12-23T21:36:03.602Z,8.00
2017-12-23T21:38:33.562Z,8.00
2017-12-23T21:41:04.117Z,8.00
2017-12-23T21:43:34.021Z,8.00
2017-12-23T21:46:03.172Z,7.90
2017-12-23T21:48:32.650Z,8.00
2017-12-23T21:51:01.846Z,8.00
2017-12-23T21:53:30.996Z,8.00
2017-12-23T21:56:01.453Z,8.00
2017-12-23T21:58:30.572Z,8.00
2017-12-23T22:00:59.712Z,8.00
2017-12-23T22:03:29.130Z,8.00
2017-12-23T22:05:58.276Z,8.00
2017-12-23T22:08:28.178Z,7.90
2017-12-23T22:10:57.454Z,7.90
2017-12-23T22:13:26.705Z,7.90
2017-12-23T22:15:55.797Z,7.90
2017-12-23T22:18:24.947Z,7.90
2017-12-23T22:20:54.821Z,8.00
2017-12-23T22:23:23.918Z,7.90
2017-12-23T22:25:53.587Z,8.00
2017-12-23T22:28:22.686Z,8.00
2017-12-23T22:30:51.830Z,8.00
2017-12-23T22:33:21.812Z,8.00
2017-12-23T22:35:50.958Z,8.00
2017-12-23T22:38:20.891Z,8.10
2017-12-23T22:40:50.757Z,8.00
2017-12-23T22:43:20.842Z,8.10
2017-12-23T22:45:50.760Z,8.10
2017-12-23T22:48:20.482Z,8.10
2017-12-23T22:50:49.727Z,8.10
2017-12-23T22:53:18.922Z,8.10
2017-12-23T22:55:50.288Z,8.10
2017-12-23T22:58:19.618Z,8.10
2017-12-23T23:00:49.711Z,8.10
2017-12-23T23:03:19.352Z,8.20
2017-12-23T23:05:49.326Z,8.20
2017-12-23T23:08:18.562Z,8.20
2017-12-23T23:10:49.729Z,8.30
2017-12-23T23:13:18.942Z,8.30
2017-12-23T23:15:48.896Z,8.30
2017-12-23T23:18:18.215Z,8.30
2017-12-23T23:20:48.932Z,8.40
2017-12-23T23:23:18.181Z,8.40
2017-12-23T23:25:47.983Z,8.40
2017-12-23T23:28:17.306Z,8.50
2017-12-23T23:30:46.447Z,8.50
2017-12-23T23:33:15.720Z,8.50
2017-12-23T23:35:45.643Z,8.50
2017-12-23T23:38:15.617Z,8.50
2017-12-23T23:40:45.215Z,8.60
2017-12-23T23:43:14.391Z,8.60
2017-12-23T23:45:44.371Z,8.60
2017-12-23T23:48:13.655Z,8.60
2017-12-23T23:50:43.568Z,8.70
2017-12-23T23:53:13.503Z,8.70
2017-12-23T23:55:43.858Z,8.70
2017-12-23T23:58:13.012Z,8.70
